Portada
METAR-TAF:

METAR-TAF

Aeropuertos :

Clayton Lake, Maine, Estados Unidos

latitud: 46-37N, longitud: 069-32W, altitud: 314 m

Observación

El informe se hizo hace 45 minutos, a las 18:16 UTC
Viento 2 kt con dirección variable
Temperatura 19°C
Humedad 64%
Presión 1009 hPa

METAR: K40B 241816Z AUTO VRB02KT 19/12 A2981 RMK AO1 SLP091 T01860119 10191 20159 51008

Hora: 15:01 (19:01 UTC)


TAF: falta

Observaciones y pronósticos meteorológicos de más de 4000 aeropuertos (mensajes METAR y TAF).

Los puntos amarillos y rojos representan las estaciones disponibles.

Ponga el ratón en el punto deseado para ver el nombre de la estación.

Haga clic para ver las observaciones y los pronósticos meteorológicos.

Para cambiar el mapa : haga clic en los botones verdes con una cruz de color negro para hacer un zoom, en el botón verde con un guión para alejar o en las flechas verdes para mapas adyacentes.


METAR-TAF: